sensor_id;sensor_type;location;lat;lon;timestamp;P1;durP1;ratioP1;P2;durP2;ratioP2
27686;SDS011;15093;57.206;-2.184;2022-08-01T00:00:44;5.47;;;1.48;;
27686;SDS011;15093;57.206;-2.184;2022-08-01T00:05:53;3.83;;;1.20;;
27686;SDS011;15093;57.206;-2.184;2022-08-01T00:11:05;6.32;;;1.52;;
27686;SDS011;15093;57.206;-2.184;2022-08-01T00:13:40;3.38;;;1.30;;
27686;SDS011;15093;57.206;-2.184;2022-08-01T00:18:50;3.43;;;1.53;;
27686;SDS011;15093;57.206;-2.184;2022-08-01T00:21:25;8.55;;;1.90;;
27686;SDS011;15093;57.206;-2.184;2022-08-01T00:26:36;1.55;;;1.10;;
27686;SDS011;15093;57.206;-2.184;2022-08-01T00:29:13;3.55;;;1.55;;
27686;SDS011;15093;57.206;-2.184;2022-08-01T00:32:08;6.60;;;2.05;;
27686;SDS011;15093;57.206;-2.184;2022-08-01T00:37:17;12.38;;;2.05;;
27686;SDS011;15093;57.206;-2.184;2022-08-01T00:42:29;4.72;;;1.25;;
27686;SDS011;15093;57.206;-2.184;2022-08-01T00:45:05;7.53;;;1.42;;
27686;SDS011;15093;57.206;-2.184;2022-08-01T00:47:43;7.40;;;1.35;;
27686;SDS011;15093;57.206;-2.184;2022-08-01T00:50:25;5.20;;;1.33;;
27686;SDS011;15093;57.206;-2.184;2022-08-01T00:53:00;3.90;;;1.52;;
27686;SDS011;15093;57.206;-2.184;2022-08-01T00:55:35;2.97;;;1.30;;
27686;SDS011;15093;57.206;-2.184;2022-08-01T01:00:47;3.13;;;1.10;;
27686;SDS011;15093;57.206;-2.184;2022-08-01T01:03:23;6.07;;;1.40;;
27686;SDS011;15093;57.206;-2.184;2022-08-01T01:06:30;6.22;;;1.25;;
27686;SDS011;15093;57.206;-2.184;2022-08-01T01:09:19;5.55;;;1.52;;
27686;SDS011;15093;57.206;-2.184;2022-08-01T01:12:01;6.50;;;1.33;;
27686;SDS011;15093;57.206;-2.184;2022-08-01T01:14:38;5.55;;;1.77;;
27686;SDS011;15093;57.206;-2.184;2022-08-01T01:17:21;4.18;;;1.40;;
27686;SDS011;15093;57.206;-2.184;2022-08-01T01:20:20;2.60;;;1.27;;
27686;SDS011;15093;57.206;-2.184;2022-08-01T01:23:03;5.43;;;1.30;;
27686;SDS011;15093;57.206;-2.184;2022-08-01T01:25:46;4.57;;;1.10;;
27686;SDS011;15093;57.206;-2.184;2022-08-01T01:28:27;7.10;;;1.60;;
27686;SDS011;15093;57.206;-2.184;2022-08-01T01:31:06;3.35;;;1.60;;
27686;SDS011;15093;57.206;-2.184;2022-08-01T01:33:42;3.00;;;1.20;;
27686;SDS011;15093;57.206;-2.184;2022-08-01T01:36:18;4.07;;;1.25;;
27686;SDS011;15093;57.206;-2.184;2022-08-01T01:38:53;4.15;;;1.48;;
27686;SDS011;15093;57.206;-2.184;2022-08-01T01:41:29;4.35;;;1.58;;
27686;SDS011;15093;57.206;-2.184;2022-08-01T01:44:04;5.20;;;1.70;;
27686;SDS011;15093;57.206;-2.184;2022-08-01T01:46:42;5.68;;;1.75;;
27686;SDS011;15093;57.206;-2.184;2022-08-01T01:49:18;4.53;;;1.40;;
27686;SDS011;15093;57.206;-2.184;2022-08-01T01:51:54;5.07;;;1.35;;
27686;SDS011;15093;57.206;-2.184;2022-08-01T01:54:34;3.70;;;1.33;;
27686;SDS011;15093;57.206;-2.184;2022-08-01T01:57:10;3.55;;;1.35;;
27686;SDS011;15093;57.206;-2.184;2022-08-01T01:59:46;6.15;;;1.70;;
27686;SDS011;15093;57.206;-2.184;2022-08-01T02:02:24;5.70;;;1.58;;
27686;SDS011;15093;57.206;-2.184;2022-08-01T02:04:59;3.30;;;1.52;;
27686;SDS011;15093;57.206;-2.184;2022-08-01T02:07:37;5.00;;;2.03;;
27686;SDS011;15093;57.206;-2.184;2022-08-01T02:10:13;3.78;;;1.40;;
27686;SDS011;15093;57.206;-2.184;2022-08-01T02:12:59;4.50;;;1.70;;
27686;SDS011;15093;57.206;-2.184;2022-08-01T02:15:34;6.85;;;1.98;;
27686;SDS011;15093;57.206;-2.184;2022-08-01T02:18:33;4.82;;;1.40;;
27686;SDS011;15093;57.206;-2.184;2022-08-01T02:21:08;5.47;;;1.80;;
27686;SDS011;15093;57.206;-2.184;2022-08-01T02:23:44;5.18;;;1.60;;
27686;SDS011;15093;57.206;-2.184;2022-08-01T02:28:54;2.47;;;1.35;;
27686;SDS011;15093;57.206;-2.184;2022-08-01T02:31:31;6.78;;;1.50;;
27686;SDS011;15093;57.206;-2.184;2022-08-01T02:34:11;6.78;;;1.60;;
27686;SDS011;15093;57.206;-2.184;2022-08-01T02:36:47;6.60;;;1.60;;
27686;SDS011;15093;57.206;-2.184;2022-08-01T02:39:22;5.82;;;1.50;;
27686;SDS011;15093;57.206;-2.184;2022-08-01T02:41:59;7.25;;;1.48;;
27686;SDS011;15093;57.206;-2.184;2022-08-01T02:44:36;2.28;;;1.40;;
27686;SDS011;15093;57.206;-2.184;2022-08-01T02:47:11;4.32;;;1.38;;
27686;SDS011;15093;57.206;-2.184;2022-08-01T02:49:49;4.75;;;1.30;;
27686;SDS011;15093;57.206;-2.184;2022-08-01T02:52:25;5.18;;;1.48;;
27686;SDS011;15093;57.206;-2.184;2022-08-01T02:55:00;4.30;;;1.30;;
27686;SDS011;15093;57.206;-2.184;2022-08-01T02:57:35;5.60;;;1.73;;
27686;SDS011;15093;57.206;-2.184;2022-08-01T03:00:27;3.53;;;1.50;;
27686;SDS011;15093;57.206;-2.184;2022-08-01T03:03:02;7.57;;;1.60;;
27686;SDS011;15093;57.206;-2.184;2022-08-01T03:05:40;6.25;;;1.40;;
27686;SDS011;15093;57.206;-2.184;2022-08-01T03:08:15;6.97;;;1.40;;
27686;SDS011;15093;57.206;-2.184;2022-08-01T03:10:51;4.97;;;1.50;;
27686;SDS011;15093;57.206;-2.184;2022-08-01T03:13:26;2.97;;;1.52;;
27686;SDS011;15093;57.206;-2.184;2022-08-01T03:16:02;6.40;;;1.30;;
27686;SDS011;15093;57.206;-2.184;2022-08-01T03:18:38;4.93;;;1.63;;
27686;SDS011;15093;57.206;-2.184;2022-08-01T03:21:16;6.10;;;2.10;;
27686;SDS011;15093;57.206;-2.184;2022-08-01T03:23:51;4.60;;;1.45;;
27686;SDS011;15093;57.206;-2.184;2022-08-01T03:26:29;4.45;;;1.83;;
27686;SDS011;15093;57.206;-2.184;2022-08-01T03:29:05;8.23;;;1.73;;
27686;SDS011;15093;57.206;-2.184;2022-08-01T03:31:41;3.30;;;1.50;;
27686;SDS011;15093;57.206;-2.184;2022-08-01T03:34:17;3.22;;;1.52;;
27686;SDS011;15093;57.206;-2.184;2022-08-01T03:36:56;6.43;;;1.90;;
27686;SDS011;15093;57.206;-2.184;2022-08-01T03:39:34;4.63;;;1.80;;
27686;SDS011;15093;57.206;-2.184;2022-08-01T03:42:09;7.55;;;1.88;;
27686;SDS011;15093;57.206;-2.184;2022-08-01T03:44:47;4.80;;;1.60;;
27686;SDS011;15093;57.206;-2.184;2022-08-01T03:47:26;6.43;;;1.70;;
27686;SDS011;15093;57.206;-2.184;2022-08-01T03:50:02;3.63;;;1.50;;
27686;SDS011;15093;57.206;-2.184;2022-08-01T03:52:45;6.53;;;1.67;;
27686;SDS011;15093;57.206;-2.184;2022-08-01T03:55:20;5.28;;;1.80;;
27686;SDS011;15093;57.206;-2.184;2022-08-01T03:57:56;9.98;;;1.92;;
27686;SDS011;15093;57.206;-2.184;2022-08-01T04:00:31;11.27;;;2.00;;
27686;SDS011;15093;57.206;-2.184;2022-08-01T04:03:08;6.43;;;1.50;;
27686;SDS011;15093;57.206;-2.184;2022-08-01T04:05:43;2.05;;;1.50;;
27686;SDS011;15093;57.206;-2.184;2022-08-01T04:10:54;5.93;;;1.52;;
27686;SDS011;15093;57.206;-2.184;2022-08-01T04:13:30;3.47;;;1.50;;
27686;SDS011;15093;57.206;-2.184;2022-08-01T04:16:07;6.57;;;1.73;;
27686;SDS011;15093;57.206;-2.184;2022-08-01T04:21:17;5.88;;;1.60;;
27686;SDS011;15093;57.206;-2.184;2022-08-01T04:23:52;4.32;;;1.60;;
27686;SDS011;15093;57.206;-2.184;2022-08-01T04:26:31;3.70;;;1.40;;
27686;SDS011;15093;57.206;-2.184;2022-08-01T04:29:06;1.70;;;1.10;;
27686;SDS011;15093;57.206;-2.184;2022-08-01T04:31:43;3.58;;;1.38;;
27686;SDS011;15093;57.206;-2.184;2022-08-01T04:34:20;5.22;;;2.03;;
27686;SDS011;15093;57.206;-2.184;2022-08-01T04:36:55;2.88;;;1.30;;
27686;SDS011;15093;57.206;-2.184;2022-08-01T04:39:31;5.50;;;1.48;;
27686;SDS011;15093;57.206;-2.184;2022-08-01T04:42:24;4.40;;;1.60;;
27686;SDS011;15093;57.206;-2.184;2022-08-01T04:45:06;5.20;;;1.70;;
27686;SDS011;15093;57.206;-2.184;2022-08-01T04:47:41;5.15;;;1.90;;
27686;SDS011;15093;57.206;-2.184;2022-08-01T04:50:17;5.72;;;1.92;;
27686;SDS011;15093;57.206;-2.184;2022-08-01T04:52:53;7.47;;;1.95;;
27686;SDS011;15093;57.206;-2.184;2022-08-01T04:58:05;3.63;;;1.60;;
27686;SDS011;15093;57.206;-2.184;2022-08-01T05:00:40;2.92;;;1.80;;
27686;SDS011;15093;57.206;-2.184;2022-08-01T05:05:49;4.05;;;1.77;;
27686;SDS011;15093;57.206;-2.184;2022-08-01T05:10:58;4.63;;;1.88;;
27686;SDS011;15093;57.206;-2.184;2022-08-01T05:13:35;6.22;;;2.45;;
27686;SDS011;15093;57.206;-2.184;2022-08-01T05:16:10;5.60;;;2.13;;
27686;SDS011;15093;57.206;-2.184;2022-08-01T05:21:19;4.18;;;1.88;;
27686;SDS011;15093;57.206;-2.184;2022-08-01T05:23:54;2.58;;;1.52;;
27686;SDS011;15093;57.206;-2.184;2022-08-01T05:26:29;6.65;;;2.25;;
27686;SDS011;15093;57.206;-2.184;2022-08-01T05:29:09;5.97;;;2.13;;
27686;SDS011;15093;57.206;-2.184;2022-08-01T05:31:44;4.05;;;1.88;;
27686;SDS011;15093;57.206;-2.184;2022-08-01T05:36:53;6.35;;;2.13;;
27686;SDS011;15093;57.206;-2.184;2022-08-01T05:39:28;3.40;;;1.52;;
27686;SDS011;15093;57.206;-2.184;2022-08-01T05:44:40;3.10;;;1.70;;
27686;SDS011;15093;57.206;-2.184;2022-08-01T05:47:15;4.32;;;2.10;;
27686;SDS011;15093;57.206;-2.184;2022-08-01T05:52:24;4.68;;;1.80;;
27686;SDS011;15093;57.206;-2.184;2022-08-01T05:55:00;5.07;;;1.60;;
27686;SDS011;15093;57.206;-2.184;2022-08-01T06:00:12;4.50;;;1.50;;
27686;SDS011;15093;57.206;-2.184;2022-08-01T06:02:47;5.75;;;1.70;;
27686;SDS011;15093;57.206;-2.184;2022-08-01T06:07:56;5.25;;;1.58;;
27686;SDS011;15093;57.206;-2.184;2022-08-01T06:10:31;6.80;;;1.80;;
27686;SDS011;15093;57.206;-2.184;2022-08-01T06:13:08;7.30;;;1.40;;
27686;SDS011;15093;57.206;-2.184;2022-08-01T06:18:21;4.03;;;1.50;;
27686;SDS011;15093;57.206;-2.184;2022-08-01T06:20:55;3.13;;;1.42;;
27686;SDS011;15093;57.206;-2.184;2022-08-01T06:26:04;5.10;;;1.42;;
27686;SDS011;15093;57.206;-2.184;2022-08-01T06:28:39;2.10;;;1.35;;
27686;SDS011;15093;57.206;-2.184;2022-08-01T06:31:14;3.33;;;1.60;;
27686;SDS011;15093;57.206;-2.184;2022-08-01T06:33:51;5.45;;;1.50;;
27686;SDS011;15093;57.206;-2.184;2022-08-01T06:36:27;4.35;;;1.50;;
27686;SDS011;15093;57.206;-2.184;2022-08-01T06:39:01;2.50;;;1.23;;
27686;SDS011;15093;57.206;-2.184;2022-08-01T06:41:39;3.15;;;1.30;;
27686;SDS011;15093;57.206;-2.184;2022-08-01T06:44:17;9.07;;;1.60;;
27686;SDS011;15093;57.206;-2.184;2022-08-01T06:46:52;6.15;;;1.60;;
27686;SDS011;15093;57.206;-2.184;2022-08-01T06:49:29;6.05;;;1.92;;
27686;SDS011;15093;57.206;-2.184;2022-08-01T06:52:04;8.18;;;1.77;;
27686;SDS011;15093;57.206;-2.184;2022-08-01T06:54:39;4.80;;;1.40;;
27686;SDS011;15093;57.206;-2.184;2022-08-01T06:57:14;7.07;;;1.50;;
27686;SDS011;15093;57.206;-2.184;2022-08-01T06:59:49;5.63;;;1.33;;
27686;SDS011;15093;57.206;-2.184;2022-08-01T07:02:25;5.95;;;1.67;;
27686;SDS011;15093;57.206;-2.184;2022-08-01T07:05:02;4.97;;;1.70;;
27686;SDS011;15093;57.206;-2.184;2022-08-01T07:07:37;8.25;;;1.80;;
27686;SDS011;15093;57.206;-2.184;2022-08-01T07:10:12;5.63;;;1.35;;
27686;SDS011;15093;57.206;-2.184;2022-08-01T07:12:46;4.75;;;1.65;;
27686;SDS011;15093;57.206;-2.184;2022-08-01T07:15:21;4.32;;;1.50;;
27686;SDS011;15093;57.206;-2.184;2022-08-01T07:17:58;4.90;;;1.67;;
27686;SDS011;15093;57.206;-2.184;2022-08-01T07:20:37;6.55;;;1.60;;
27686;SDS011;15093;57.206;-2.184;2022-08-01T07:23:23;4.53;;;1.50;;
27686;SDS011;15093;57.206;-2.184;2022-08-01T07:26:07;4.57;;;1.77;;
27686;SDS011;15093;57.206;-2.184;2022-08-01T07:28:41;7.05;;;1.65;;
27686;SDS011;15093;57.206;-2.184;2022-08-01T07:31:16;3.60;;;1.50;;
27686;SDS011;15093;57.206;-2.184;2022-08-01T07:33:51;2.35;;;1.33;;
27686;SDS011;15093;57.206;-2.184;2022-08-01T07:36:28;5.00;;;1.73;;
27686;SDS011;15093;57.206;-2.184;2022-08-01T07:39:03;3.45;;;1.50;;
27686;SDS011;15093;57.206;-2.184;2022-08-01T07:41:38;5.35;;;1.80;;
27686;SDS011;15093;57.206;-2.184;2022-08-01T07:44:32;4.07;;;1.85;;
27686;SDS011;15093;57.206;-2.184;2022-08-01T07:47:07;7.05;;;2.05;;
27686;SDS011;15093;57.206;-2.184;2022-08-01T07:49:42;5.03;;;1.45;;
27686;SDS011;15093;57.206;-2.184;2022-08-01T07:52:19;5.78;;;2.05;;
27686;SDS011;15093;57.206;-2.184;2022-08-01T07:54:54;6.85;;;1.73;;
27686;SDS011;15093;57.206;-2.184;2022-08-01T08:00:04;3.42;;;1.75;;
27686;SDS011;15093;57.206;-2.184;2022-08-01T08:02:40;4.95;;;1.50;;
27686;SDS011;15093;57.206;-2.184;2022-08-01T08:05:15;6.63;;;1.95;;
27686;SDS011;15093;57.206;-2.184;2022-08-01T08:08:13;3.65;;;1.27;;
27686;SDS011;15093;57.206;-2.184;2022-08-01T08:10:52;3.83;;;1.50;;
27686;SDS011;15093;57.206;-2.184;2022-08-01T08:16:01;4.25;;;1.35;;
27686;SDS011;15093;57.206;-2.184;2022-08-01T08:21:10;7.53;;;1.70;;
27686;SDS011;15093;57.206;-2.184;2022-08-01T08:26:34;3.92;;;1.60;;
27686;SDS011;15093;57.206;-2.184;2022-08-01T08:29:10;4.43;;;1.27;;
27686;SDS011;15093;57.206;-2.184;2022-08-01T08:31:45;3.80;;;1.50;;
27686;SDS011;15093;57.206;-2.184;2022-08-01T08:34:23;6.75;;;1.67;;
27686;SDS011;15093;57.206;-2.184;2022-08-01T08:36:58;11.77;;;1.67;;
27686;SDS011;15093;57.206;-2.184;2022-08-01T08:39:36;8.43;;;2.00;;
27686;SDS011;15093;57.206;-2.184;2022-08-01T08:42:15;4.57;;;1.70;;
27686;SDS011;15093;57.206;-2.184;2022-08-01T08:44:49;5.93;;;2.30;;
27686;SDS011;15093;57.206;-2.184;2022-08-01T08:47:26;7.57;;;1.92;;
27686;SDS011;15093;57.206;-2.184;2022-08-01T08:50:02;4.05;;;1.50;;
27686;SDS011;15093;57.206;-2.184;2022-08-01T08:52:40;4.47;;;1.70;;
27686;SDS011;15093;57.206;-2.184;2022-08-01T08:55:16;4.80;;;1.65;;
27686;SDS011;15093;57.206;-2.184;2022-08-01T08:57:53;8.60;;;2.28;;
27686;SDS011;15093;57.206;-2.184;2022-08-01T09:00:29;6.72;;;2.08;;
27686;SDS011;15093;57.206;-2.184;2022-08-01T09:03:03;3.85;;;1.52;;
27686;SDS011;15093;57.206;-2.184;2022-08-01T09:05:40;5.03;;;1.83;;
27686;SDS011;15093;57.206;-2.184;2022-08-01T09:08:15;3.53;;;1.50;;
27686;SDS011;15093;57.206;-2.184;2022-08-01T09:13:27;2.80;;;1.65;;
27686;SDS011;15093;57.206;-2.184;2022-08-01T09:16:02;4.63;;;1.95;;
27686;SDS011;15093;57.206;-2.184;2022-08-01T09:18:39;5.57;;;1.75;;
27686;SDS011;15093;57.206;-2.184;2022-08-01T09:21:24;4.03;;;1.73;;
27686;SDS011;15093;57.206;-2.184;2022-08-01T09:23:59;5.35;;;1.60;;
27686;SDS011;15093;57.206;-2.184;2022-08-01T09:26:36;6.32;;;1.70;;
27686;SDS011;15093;57.206;-2.184;2022-08-01T09:29:20;5.50;;;1.90;;
27686;SDS011;15093;57.206;-2.184;2022-08-01T09:32:08;2.78;;;1.30;;
27686;SDS011;15093;57.206;-2.184;2022-08-01T09:34:44;3.17;;;1.58;;
27686;SDS011;15093;57.206;-2.184;2022-08-01T09:37:30;3.25;;;1.67;;
27686;SDS011;15093;57.206;-2.184;2022-08-01T09:40:08;4.68;;;1.50;;
27686;SDS011;15093;57.206;-2.184;2022-08-01T09:42:43;2.38;;;1.45;;
27686;SDS011;15093;57.206;-2.184;2022-08-01T09:45:37;2.35;;;1.30;;
27686;SDS011;15093;57.206;-2.184;2022-08-01T09:48:19;3.80;;;1.80;;
27686;SDS011;15093;57.206;-2.184;2022-08-01T09:51:00;1.98;;;1.33;;
27686;SDS011;15093;57.206;-2.184;2022-08-01T09:53:40;4.05;;;1.40;;
27686;SDS011;15093;57.206;-2.184;2022-08-01T09:56:24;3.47;;;1.40;;
27686;SDS011;15093;57.206;-2.184;2022-08-01T09:58:59;3.38;;;1.35;;
27686;SDS011;15093;57.206;-2.184;2022-08-01T10:01:46;4.75;;;1.33;;
27686;SDS011;15093;57.206;-2.184;2022-08-01T10:04:21;3.13;;;1.38;;
27686;SDS011;15093;57.206;-2.184;2022-08-01T10:07:02;4.93;;;1.33;;
27686;SDS011;15093;57.206;-2.184;2022-08-01T10:09:38;3.08;;;1.10;;
27686;SDS011;15093;57.206;-2.184;2022-08-01T10:12:14;4.00;;;1.17;;
27686;SDS011;15093;57.206;-2.184;2022-08-01T10:14:49;3.60;;;1.23;;
27686;SDS011;15093;57.206;-2.184;2022-08-01T10:17:29;4.15;;;1.25;;
27686;SDS011;15093;57.206;-2.184;2022-08-01T10:20:24;2.97;;;1.20;;
27686;SDS011;15093;57.206;-2.184;2022-08-01T10:23:03;3.35;;;1.13;;
27686;SDS011;15093;57.206;-2.184;2022-08-01T10:25:40;5.35;;;1.50;;
27686;SDS011;15093;57.206;-2.184;2022-08-01T10:28:17;3.70;;;1.35;;
27686;SDS011;15093;57.206;-2.184;2022-08-01T10:30:54;3.05;;;1.50;;
27686;SDS011;15093;57.206;-2.184;2022-08-01T10:33:32;2.70;;;1.25;;
27686;SDS011;15093;57.206;-2.184;2022-08-01T10:36:23;2.03;;;1.00;;
27686;SDS011;15093;57.206;-2.184;2022-08-01T10:38:59;1.20;;;1.10;;
27686;SDS011;15093;57.206;-2.184;2022-08-01T10:41:34;1.67;;;0.95;;
27686;SDS011;15093;57.206;-2.184;2022-08-01T10:44:11;3.60;;;1.27;;
27686;SDS011;15093;57.206;-2.184;2022-08-01T10:46:46;2.00;;;1.10;;
27686;SDS011;15093;57.206;-2.184;2022-08-01T10:49:27;2.80;;;1.00;;
27686;SDS011;15093;57.206;-2.184;2022-08-01T10:52:03;4.78;;;1.10;;
27686;SDS011;15093;57.206;-2.184;2022-08-01T10:54:39;3.03;;;1.33;;
27686;SDS011;15093;57.206;-2.184;2022-08-01T10:57:23;4.10;;;1.20;;
27686;SDS011;15093;57.206;-2.184;2022-08-01T10:59:58;1.17;;;0.93;;
27686;SDS011;15093;57.206;-2.184;2022-08-01T11:02:36;2.25;;;1.15;;
27686;SDS011;15093;57.206;-2.184;2022-08-01T11:05:20;1.73;;;1.00;;
27686;SDS011;15093;57.206;-2.184;2022-08-01T11:08:00;1.50;;;1.15;;
27686;SDS011;15093;57.206;-2.184;2022-08-01T11:10:37;2.85;;;1.02;;
27686;SDS011;15093;57.206;-2.184;2022-08-01T11:13:14;2.05;;;0.90;;
27686;SDS011;15093;57.206;-2.184;2022-08-01T11:18:29;1.27;;;0.88;;
27686;SDS011;15093;57.206;-2.184;2022-08-01T11:21:11;1.10;;;0.90;;
27686;SDS011;15093;57.206;-2.184;2022-08-01T11:24:07;3.58;;;0.90;;
27686;SDS011;15093;57.206;-2.184;2022-08-01T11:26:52;2.83;;;1.08;;
27686;SDS011;15093;57.206;-2.184;2022-08-01T11:32:45;1.85;;;0.93;;
27686;SDS011;15093;57.206;-2.184;2022-08-01T11:36:15;4.85;;;1.33;;
27686;SDS011;15093;57.206;-2.184;2022-08-01T11:39:10;1.70;;;1.02;;
27686;SDS011;15093;57.206;-2.184;2022-08-01T11:41:45;2.13;;;0.95;;
27686;SDS011;15093;57.206;-2.184;2022-08-01T11:44:21;1.00;;;0.90;;
27686;SDS011;15093;57.206;-2.184;2022-08-01T11:47:02;1.83;;;0.95;;
27686;SDS011;15093;57.206;-2.184;2022-08-01T11:49:44;2.25;;;1.00;;
27686;SDS011;15093;57.206;-2.184;2022-08-01T11:52:24;2.65;;;1.05;;
27686;SDS011;15093;57.206;-2.184;2022-08-01T11:55:07;2.97;;;0.90;;
27686;SDS011;15093;57.206;-2.184;2022-08-01T11:57:47;0.95;;;0.73;;
27686;SDS011;15093;57.206;-2.184;2022-08-01T12:00:23;4.30;;;1.40;;
27686;SDS011;15093;57.206;-2.184;2022-08-01T12:02:59;3.40;;;1.23;;
27686;SDS011;15093;57.206;-2.184;2022-08-01T12:05:35;5.13;;;1.23;;
27686;SDS011;15093;57.206;-2.184;2022-08-01T12:08:13;4.30;;;1.38;;
27686;SDS011;15093;57.206;-2.184;2022-08-01T12:11:01;4.65;;;1.60;;
27686;SDS011;15093;57.206;-2.184;2022-08-01T12:13:40;2.60;;;1.30;;
27686;SDS011;15093;57.206;-2.184;2022-08-01T12:16:16;3.42;;;1.33;;
27686;SDS011;15093;57.206;-2.184;2022-08-01T12:18:57;4.28;;;1.23;;
27686;SDS011;15093;57.206;-2.184;2022-08-01T12:21:35;1.10;;;0.82;;
27686;SDS011;15093;57.206;-2.184;2022-08-01T12:24:09;5.57;;;1.65;;
27686;SDS011;15093;57.206;-2.184;2022-08-01T12:26:47;4.10;;;1.40;;
27686;SDS011;15093;57.206;-2.184;2022-08-01T12:29:30;4.63;;;1.20;;
27686;SDS011;15093;57.206;-2.184;2022-08-01T12:32:20;3.53;;;1.30;;
27686;SDS011;15093;57.206;-2.184;2022-08-01T12:35:02;5.93;;;1.60;;
27686;SDS011;15093;57.206;-2.184;2022-08-01T12:37:38;4.60;;;1.50;;
27686;SDS011;15093;57.206;-2.184;2022-08-01T12:40:16;4.63;;;1.05;;
27686;SDS011;15093;57.206;-2.184;2022-08-01T12:42:54;2.40;;;1.10;;
27686;SDS011;15093;57.206;-2.184;2022-08-01T12:45:33;6.43;;;1.38;;
27686;SDS011;15093;57.206;-2.184;2022-08-01T12:48:09;5.72;;;1.13;;
27686;SDS011;15093;57.206;-2.184;2022-08-01T12:50:48;3.50;;;1.08;;
27686;SDS011;15093;57.206;-2.184;2022-08-01T12:53:24;2.30;;;1.00;;
27686;SDS011;15093;57.206;-2.184;2022-08-01T12:56:11;3.35;;;1.20;;
27686;SDS011;15093;57.206;-2.184;2022-08-01T13:01:25;2.72;;;1.05;;
27686;SDS011;15093;57.206;-2.184;2022-08-01T13:04:00;5.30;;;1.08;;
27686;SDS011;15093;57.206;-2.184;2022-08-01T13:06:35;2.90;;;1.00;;
27686;SDS011;15093;57.206;-2.184;2022-08-01T13:09:10;2.83;;;0.80;;
27686;SDS011;15093;57.206;-2.184;2022-08-01T13:11:45;5.90;;;1.20;;
27686;SDS011;15093;57.206;-2.184;2022-08-01T13:14:34;2.38;;;1.10;;
27686;SDS011;15093;57.206;-2.184;2022-08-01T13:17:15;3.80;;;1.15;;
27686;SDS011;15093;57.206;-2.184;2022-08-01T13:20:04;2.65;;;0.95;;
27686;SDS011;15093;57.206;-2.184;2022-08-01T13:22:38;3.13;;;1.33;;
27686;SDS011;15093;57.206;-2.184;2022-08-01T13:25:14;4.20;;;1.23;;
27686;SDS011;15093;57.206;-2.184;2022-08-01T13:30:50;2.97;;;1.00;;
27686;SDS011;15093;57.206;-2.184;2022-08-01T13:33:38;5.22;;;1.15;;
27686;SDS011;15093;57.206;-2.184;2022-08-01T13:36:14;4.00;;;1.00;;
27686;SDS011;15093;57.206;-2.184;2022-08-01T13:38:58;5.13;;;1.15;;
27686;SDS011;15093;57.206;-2.184;2022-08-01T13:41:48;2.88;;;1.20;;
27686;SDS011;15093;57.206;-2.184;2022-08-01T13:44:23;5.50;;;1.10;;
27686;SDS011;15093;57.206;-2.184;2022-08-01T13:49:34;2.08;;;1.13;;
27686;SDS011;15093;57.206;-2.184;2022-08-01T13:52:11;3.70;;;1.02;;
27686;SDS011;15093;57.206;-2.184;2022-08-01T13:57:20;3.13;;;1.00;;
27686;SDS011;15093;57.206;-2.184;2022-08-01T13:59:55;5.72;;;1.63;;
27686;SDS011;15093;57.206;-2.184;2022-08-01T14:02:31;2.35;;;0.95;;
27686;SDS011;15093;57.206;-2.184;2022-08-01T14:05:09;4.80;;;1.02;;
27686;SDS011;15093;57.206;-2.184;2022-08-01T14:07:44;4.55;;;1.10;;
27686;SDS011;15093;57.206;-2.184;2022-08-01T14:10:19;3.97;;;1.10;;
27686;SDS011;15093;57.206;-2.184;2022-08-01T14:12:54;0.95;;;0.70;;
27686;SDS011;15093;57.206;-2.184;2022-08-01T14:15:29;3.85;;;1.10;;
27686;SDS011;15093;57.206;-2.184;2022-08-01T14:18:10;3.10;;;1.00;;
27686;SDS011;15093;57.206;-2.184;2022-08-01T14:20:48;2.90;;;0.90;;
27686;SDS011;15093;57.206;-2.184;2022-08-01T14:23:28;3.67;;;0.90;;
27686;SDS011;15093;57.206;-2.184;2022-08-01T14:28:42;4.13;;;1.00;;
27686;SDS011;15093;57.206;-2.184;2022-08-01T14:33:52;2.35;;;1.00;;
27686;SDS011;15093;57.206;-2.184;2022-08-01T14:39:05;2.33;;;0.80;;
27686;SDS011;15093;57.206;-2.184;2022-08-01T14:41:45;2.25;;;0.70;;
27686;SDS011;15093;57.206;-2.184;2022-08-01T14:44:20;2.17;;;0.90;;
27686;SDS011;15093;57.206;-2.184;2022-08-01T14:46:58;3.53;;;0.98;;
27686;SDS011;15093;57.206;-2.184;2022-08-01T14:49:46;3.85;;;1.00;;
27686;SDS011;15093;57.206;-2.184;2022-08-01T14:52:21;2.08;;;0.80;;
27686;SDS011;15093;57.206;-2.184;2022-08-01T14:57:33;5.60;;;1.10;;
27686;SDS011;15093;57.206;-2.184;2022-08-01T15:00:08;1.85;;;1.10;;
27686;SDS011;15093;57.206;-2.184;2022-08-01T15:02:44;8.45;;;1.00;;
27686;SDS011;15093;57.206;-2.184;2022-08-01T15:05:22;2.45;;;0.90;;
27686;SDS011;15093;57.206;-2.184;2022-08-01T15:07:56;2.58;;;1.10;;
27686;SDS011;15093;57.206;-2.184;2022-08-01T15:13:08;4.70;;;0.85;;
27686;SDS011;15093;57.206;-2.184;2022-08-01T15:15:43;2.72;;;0.70;;
27686;SDS011;15093;57.206;-2.184;2022-08-01T15:18:18;3.53;;;0.98;;
27686;SDS011;15093;57.206;-2.184;2022-08-01T15:20:53;2.70;;;0.88;;
27686;SDS011;15093;57.206;-2.184;2022-08-01T15:23:28;2.28;;;0.70;;
27686;SDS011;15093;57.206;-2.184;2022-08-01T15:28:47;2.45;;;0.90;;
27686;SDS011;15093;57.206;-2.184;2022-08-01T15:31:23;3.90;;;0.98;;
27686;SDS011;15093;57.206;-2.184;2022-08-01T15:33:58;3.53;;;0.95;;
27686;SDS011;15093;57.206;-2.184;2022-08-01T15:36:34;3.92;;;1.05;;
27686;SDS011;15093;57.206;-2.184;2022-08-01T15:39:13;3.70;;;1.00;;
27686;SDS011;15093;57.206;-2.184;2022-08-01T15:41:49;4.88;;;0.90;;
27686;SDS011;15093;57.206;-2.184;2022-08-01T15:47:01;0.52;;;0.50;;
27686;SDS011;15093;57.206;-2.184;2022-08-01T15:49:36;5.60;;;0.90;;
27686;SDS011;15093;57.206;-2.184;2022-08-01T15:52:11;1.65;;;0.75;;
27686;SDS011;15093;57.206;-2.184;2022-08-01T15:54:53;0.70;;;0.70;;
27686;SDS011;15093;57.206;-2.184;2022-08-01T15:57:28;1.73;;;0.60;;
27686;SDS011;15093;57.206;-2.184;2022-08-01T16:00:06;2.38;;;0.75;;
27686;SDS011;15093;57.206;-2.184;2022-08-01T16:02:43;1.88;;;0.70;;
27686;SDS011;15093;57.206;-2.184;2022-08-01T16:05:18;4.63;;;0.95;;
27686;SDS011;15093;57.206;-2.184;2022-08-01T16:07:53;4.90;;;0.88;;
27686;SDS011;15093;57.206;-2.184;2022-08-01T16:10:32;2.60;;;0.73;;
27686;SDS011;15093;57.206;-2.184;2022-08-01T16:13:07;1.85;;;0.70;;
27686;SDS011;15093;57.206;-2.184;2022-08-01T16:15:42;3.63;;;0.90;;
27686;SDS011;15093;57.206;-2.184;2022-08-01T16:18:19;1.05;;;0.82;;
27686;SDS011;15093;57.206;-2.184;2022-08-01T16:20:54;2.50;;;1.20;;
27686;SDS011;15093;57.206;-2.184;2022-08-01T16:23:29;2.58;;;0.80;;
27686;SDS011;15093;57.206;-2.184;2022-08-01T16:26:04;4.35;;;0.90;;
27686;SDS011;15093;57.206;-2.184;2022-08-01T16:28:57;5.15;;;1.00;;
27686;SDS011;15093;57.206;-2.184;2022-08-01T16:34:22;2.10;;;0.70;;
27686;SDS011;15093;57.206;-2.184;2022-08-01T16:36:57;2.55;;;0.63;;
27686;SDS011;15093;57.206;-2.184;2022-08-01T16:42:06;3.22;;;0.90;;
27686;SDS011;15093;57.206;-2.184;2022-08-01T16:44:41;3.17;;;0.80;;
27686;SDS011;15093;57.206;-2.184;2022-08-01T16:47:16;2.03;;;0.80;;
27686;SDS011;15093;57.206;-2.184;2022-08-01T16:49:53;2.42;;;0.70;;
27686;SDS011;15093;57.206;-2.184;2022-08-01T16:52:28;4.60;;;0.80;;
27686;SDS011;15093;57.206;-2.184;2022-08-01T16:55:12;1.58;;;0.80;;
27686;SDS011;15093;57.206;-2.184;2022-08-01T17:00:21;2.33;;;0.50;;
27686;SDS011;15093;57.206;-2.184;2022-08-01T17:02:59;1.95;;;0.80;;
27686;SDS011;15093;57.206;-2.184;2022-08-01T17:05:50;2.47;;;0.75;;
27686;SDS011;15093;57.206;-2.184;2022-08-01T17:08:25;1.33;;;0.73;;
27686;SDS011;15093;57.206;-2.184;2022-08-01T17:11:00;2.42;;;0.80;;
27686;SDS011;15093;57.206;-2.184;2022-08-01T17:13:39;6.68;;;1.20;;
27686;SDS011;15093;57.206;-2.184;2022-08-01T17:16:14;1.63;;;0.70;;
27686;SDS011;15093;57.206;-2.184;2022-08-01T17:18:49;2.55;;;0.85;;
27686;SDS011;15093;57.206;-2.184;2022-08-01T17:24:01;1.35;;;0.60;;
27686;SDS011;15093;57.206;-2.184;2022-08-01T17:26:36;2.92;;;1.00;;
27686;SDS011;15093;57.206;-2.184;2022-08-01T17:31:45;4.40;;;1.10;;